Time;durP1;ratioP1;P1;durP2;ratioP2;P2;SDS_P1;SDS_P2;PMS_P1;PMS_P2;Temp;Humidity;BMP_temperature;BMP_pressure;BME280_temperature;BME280_humidity;BME280_pressure;Samples;Min_cycle;Max_cycle;Signal;HPM_P1;HPM_P2
2022/11/24 00:02:29;;;;;;;17.50;13.38;;;;;;;;;;9988164;28;20137;-64
2022/11/24 00:07:28;;;;;;;16.80;12.73;;;;;;;;;;9988438;28;20050;-65
2022/11/24 00:12:26;;;;;;;14.48;12.98;;;;;;;;;;9985220;28;20053;-65
2022/11/24 00:17:21;;;;;;;15.63;11.70;;;;;;;;;;9997027;28;20176;-68
2022/11/24 00:22:15;;;;;;;14.18;10.18;;;;;;;;;;9987405;28;20062;-68
2022/11/24 00:27:08;;;;;;;12.07;10.50;;;;;;;;;;9986933;28;20465;-68
2022/11/24 00:32:04;;;;;;;14.00;10.43;;;;;;;;;;9987955;28;20129;-68
2022/11/24 00:36:58;;;;;;;11.13;10.02;;;;;;;;;;9988190;28;20133;-67
2022/11/24 00:41:52;;;;;;;18.15;14.77;;;;;;;;;;9987125;28;20042;-68
2022/11/24 00:46:46;;;;;;;19.40;14.98;;;;;;;;;;9986636;28;20109;-68
2022/11/24 00:51:41;;;;;;;17.05;11.68;;;;;;;;;;9986722;28;20113;-67
2022/11/24 00:56:34;;;;;;;15.63;10.80;;;;;;;;;;9986306;28;20058;-68
2022/11/24 01:01:31;;;;;;;12.52;11.23;;;;;;;;;;9987108;28;20453;-68
2022/11/24 01:06:28;;;;;;;12.23;10.93;;;;;;;;;;9986546;28;20058;-68
2022/11/24 01:11:26;;;;;;;11.90;9.85;;;;;;;;;;9986303;28;20092;-68
2022/11/24 01:16:31;;;;;;;16.83;10.93;;;;;;;;;;9986280;28;20053;-68
2022/11/24 01:21:25;;;;;;;15.82;11.75;;;;;;;;;;9994441;28;20460;-68
2022/11/24 01:26:20;;;;;;;11.27;10.20;;;;;;;;;;9991932;28;20058;-68
2022/11/24 01:31:15;;;;;;;10.88;9.43;;;;;;;;;;9994223;28;20066;-68
2022/11/24 01:36:09;;;;;;;10.52;9.43;;;;;;;;;;9993750;28;20093;-68
2022/11/24 01:41:05;;;;;;;10.23;8.57;;;;;;;;;;9993686;28;20138;-68
2022/11/24 01:46:21;;;;;;;10.55;9.50;;;;;;;;;;9994625;28;20101;-68
2022/11/24 01:51:26;;;;;;;10.43;9.32;;;;;;;;;;9966807;28;20405;-68
2022/11/24 01:56:19;;;;;;;11.48;9.18;;;;;;;;;;9994436;28;20057;-68
2022/11/24 02:01:12;;;;;;;14.23;9.45;;;;;;;;;;9993838;28;20059;-68
2022/11/24 02:06:15;;;;;;;10.60;9.05;;;;;;;;;;9993306;28;20081;-68
2022/11/24 02:11:09;;;;;;;14.20;8.65;;;;;;;;;;9993455;28;20052;-68
2022/11/24 02:16:06;;;;;;;10.55;9.48;;;;;;;;;;9992907;28;20050;-68
2022/11/24 02:21:00;;;;;;;10.20;8.35;;;;;;;;;;9976056;28;20058;-68
2022/11/24 02:26:05;;;;;;;9.15;7.15;;;;;;;;;;9993301;28;20061;-69
2022/11/24 02:31:00;;;;;;;10.15;9.07;;;;;;;;;;9991864;28;20085;-68
2022/11/24 02:35:53;;;;;;;8.90;8.05;;;;;;;;;;9970740;28;20081;-68
2022/11/24 02:40:49;;;;;;;8.85;7.80;;;;;;;;;;9975382;28;20428;-68
2022/11/24 02:45:43;;;;;;;11.18;7.35;;;;;;;;;;9991989;28;20058;-68
2022/11/24 02:50:37;;;;;;;8.90;8.00;;;;;;;;;;9991762;28;20060;-68
2022/11/24 02:55:30;;;;;;;7.85;7.15;;;;;;;;;;9991321;28;20042;-68
2022/11/24 03:00:24;;;;;;;6.97;6.30;;;;;;;;;;9991211;28;20101;-68
2022/11/24 03:05:18;;;;;;;10.15;8.43;;;;;;;;;;9991850;28;20065;-68
2022/11/24 03:10:11;;;;;;;9.80;7.68;;;;;;;;;;9991005;28;20046;-68
2022/11/24 03:15:05;;;;;;;7.38;6.68;;;;;;;;;;9991508;28;20052;-68
2022/11/24 03:20:00;;;;;;;8.70;7.25;;;;;;;;;;9990429;28;20051;-68
2022/11/24 03:24:58;;;;;;;12.43;8.03;;;;;;;;;;9991059;28;20444;-68
2022/11/24 03:29:51;;;;;;;19.58;7.95;;;;;;;;;;9990656;28;20066;-68
2022/11/24 03:34:45;;;;;;;9.60;6.97;;;;;;;;;;9990518;28;20047;-68
2022/11/24 03:39:40;;;;;;;9.27;6.53;;;;;;;;;;9990132;28;20058;-68
2022/11/24 03:44:34;;;;;;;6.82;4.40;;;;;;;;;;9989635;28;20050;-69
2022/11/24 03:49:28;;;;;;;6.63;5.95;;;;;;;;;;9977667;28;20050;-70
2022/11/24 03:54:22;;;;;;;8.50;5.95;;;;;;;;;;9989644;28;20502;-69
2022/11/24 03:59:16;;;;;;;9.30;8.05;;;;;;;;;;9989538;28;20137;-69
2022/11/24 04:04:12;;;;;;;9.38;8.45;;;;;;;;;;9989570;28;20109;-69
2022/11/24 04:09:06;;;;;;;9.18;7.68;;;;;;;;;;9989038;28;20042;-70
2022/11/24 04:14:00;;;;;;;9.27;8.32;;;;;;;;;;9989270;28;20050;-69
2022/11/24 04:19:01;;;;;;;6.65;5.75;;;;;;;;;;9988648;28;20050;-69
2022/11/24 04:23:55;;;;;;;5.47;4.30;;;;;;;;;;9989055;28;20046;-69
2022/11/24 04:28:48;;;;;;;4.47;4.07;;;;;;;;;;9987627;28;20062;-70
2022/11/24 04:33:43;;;;;;;4.93;4.43;;;;;;;;;;9988889;28;20046;-69
2022/11/24 04:38:37;;;;;;;3.80;3.45;;;;;;;;;;9984436;28;20065;-70
2022/11/24 04:43:50;;;;;;;5.22;4.22;;;;;;;;;;9986308;28;20057;-70
2022/11/24 04:48:44;;;;;;;4.47;4.07;;;;;;;;;;9987706;28;20051;-69
2022/11/24 04:53:38;;;;;;;5.40;4.35;;;;;;;;;;9986927;28;20493;-69
2022/11/24 04:58:31;;;;;;;4.32;3.30;;;;;;;;;;9987844;28;20058;-69
2022/11/24 05:03:24;;;;;;;4.53;3.90;;;;;;;;;;9987564;28;20118;-69
2022/11/24 05:08:18;;;;;;;6.85;3.33;;;;;;;;;;9987410;28;20521;-69
2022/11/24 05:13:12;;;;;;;4.22;3.55;;;;;;;;;;9988044;28;20486;-69
2022/11/24 05:18:26;;;;;;;4.55;3.63;;;;;;;;;;9987172;28;20050;-69
2022/11/24 05:23:20;;;;;;;4.30;3.20;;;;;;;;;;9984980;28;20054;-70
2022/11/24 05:28:14;;;;;;;5.25;3.30;;;;;;;;;;9987400;28;20074;-69
2022/11/24 05:33:11;;;;;;;4.85;3.92;;;;;;;;;;9986997;28;20054;-69
2022/11/24 05:38:04;;;;;;;5.13;3.90;;;;;;;;;;9986974;28;20050;-69
2022/11/24 05:42:59;;;;;;;4.03;3.10;;;;;;;;;;9987136;28;20078;-69
2022/11/24 05:47:53;;;;;;;9.02;3.78;;;;;;;;;;9987488;28;20458;-69
2022/11/24 05:52:47;;;;;;;7.18;3.13;;;;;;;;;;9987116;28;20062;-69
2022/11/24 05:57:42;;;;;;;3.65;3.25;;;;;;;;;;9986851;28;20486;-69
2022/11/24 06:02:35;;;;;;;5.63;4.88;;;;;;;;;;10000673;28;20093;-70
2022/11/24 06:07:30;;;;;;;7.53;4.72;;;;;;;;;;9988004;28;20065;-70
2022/11/24 06:12:25;;;;;;;7.10;5.20;;;;;;;;;;9991399;28;20100;-71
2022/11/24 06:17:19;;;;;;;7.28;5.07;;;;;;;;;;9984859;28;20065;-70
2022/11/24 06:22:13;;;;;;;9.77;7.90;;;;;;;;;;9990427;28;20058;-70
2022/11/24 06:27:08;;;;;;;8.40;4.70;;;;;;;;;;9992185;28;20121;-70
2022/11/24 06:32:01;;;;;;;6.10;4.38;;;;;;;;;;9991290;28;20056;-70
2022/11/24 06:36:55;;;;;;;10.32;4.82;;;;;;;;;;9989575;28;20057;-67
2022/11/24 06:41:50;;;;;;;4.55;4.13;;;;;;;;;;9991205;28;20046;-70
2022/11/24 06:46:43;;;;;;;7.55;4.60;;;;;;;;;;9972632;28;20046;-69
2022/11/24 06:51:38;;;;;;;10.43;4.72;;;;;;;;;;9990057;28;20062;-69
2022/11/24 06:56:31;;;;;;;9.57;5.00;;;;;;;;;;9990826;28;20043;-70
2022/11/24 07:01:27;;;;;;;6.28;4.53;;;;;;;;;;9988428;28;20074;-70
2022/11/24 07:06:22;;;;;;;8.80;4.93;;;;;;;;;;9990683;28;20057;-69
2022/11/24 07:11:22;;;;;;;15.68;5.82;;;;;;;;;;9972189;28;20498;-70
2022/11/24 07:16:16;;;;;;;23.60;14.50;;;;;;;;;;9986343;28;20057;-73
2022/11/24 07:21:10;;;;;;;29.67;17.60;;;;;;;;;;9989675;28;20490;-72
2022/11/24 07:26:05;;;;;;;27.45;15.00;;;;;;;;;;9975277;28;20042;-73
2022/11/24 07:30:59;;;;;;;26.45;15.63;;;;;;;;;;9985979;28;20319;-72
2022/11/24 07:35:53;;;;;;;9.35;6.82;;;;;;;;;;9989449;28;20085;-73
2022/11/24 07:40:47;;;;;;;10.30;7.93;;;;;;;;;;9987996;28;20070;-70
2022/11/24 07:45:41;;;;;;;16.15;8.57;;;;;;;;;;9988434;28;20051;-71
2022/11/24 07:50:35;;;;;;;21.58;8.05;;;;;;;;;;9988862;28;20062;-73
2022/11/24 07:55:29;;;;;;;20.58;7.68;;;;;;;;;;9988023;28;20057;-71
2022/11/24 08:00:23;;;;;;;15.20;5.70;;;;;;;;;;9988123;28;20149;-73
2022/11/24 08:05:17;;;;;;;11.45;4.82;;;;;;;;;;9987817;28;20125;-76
2022/11/24 08:10:11;;;;;;;7.47;6.70;;;;;;;;;;9987240;28;20571;-76
2022/11/24 08:15:09;;;;;;;6.07;5.18;;;;;;;;;;9987398;28;20039;-76
2022/11/24 08:20:07;;;;;;;6.43;4.72;;;;;;;;;;9988524;28;20074;-76
2022/11/24 08:25:01;;;;;;;8.45;5.05;;;;;;;;;;9986777;28;20051;-76
2022/11/24 08:29:54;;;;;;;7.07;4.60;;;;;;;;;;9987227;28;20054;-76
2022/11/24 08:34:48;;;;;;;6.70;4.68;;;;;;;;;;9986070;28;20057;-77
2022/11/24 08:39:44;;;;;;;6.57;4.45;;;;;;;;;;9986749;28;20057;-72
2022/11/24 08:44:38;;;;;;;6.45;5.75;;;;;;;;;;9979944;28;20058;-72
2022/11/24 08:49:31;;;;;;;8.75;7.07;;;;;;;;;;9987891;28;20058;-72
2022/11/24 08:54:26;;;;;;;11.05;6.85;;;;;;;;;;9983533;28;20425;-72
2022/11/24 08:59:20;;;;;;;12.15;5.97;;;;;;;;;;9986708;28;20494;-73
2022/11/24 09:04:14;;;;;;;7.95;5.85;;;;;;;;;;9987139;28;20097;-78
2022/11/24 09:09:09;;;;;;;14.38;6.35;;;;;;;;;;9986712;28;20125;-76
2022/11/24 09:14:02;;;;;;;16.55;8.45;;;;;;;;;;9985203;28;20050;-77
2022/11/24 09:18:58;;;;;;;7.95;4.78;;;;;;;;;;9985920;28;20057;-78
2022/11/24 09:23:53;;;;;;;9.40;5.53;;;;;;;;;;9987312;28;20054;-78
2022/11/24 09:28:47;;;;;;;7.35;5.60;;;;;;;;;;9987036;28;20057;-77
2022/11/24 09:33:41;;;;;;;7.82;6.10;;;;;;;;;;9987216;28;20497;-77
2022/11/24 09:38:34;;;;;;;11.65;4.85;;;;;;;;;;9988113;28;20492;-77
2022/11/24 09:43:41;;;;;;;7.00;4.38;;;;;;;;;;9993184;28;20050;-77
2022/11/24 09:48:39;;;;;;;5.72;4.22;;;;;;;;;;9976883;28;20101;-78
2022/11/24 09:53:59;;;;;;;6.75;4.68;;;;;;;;;;9977442;28;20533;-77
2022/11/24 09:58:53;;;;;;;6.00;4.65;;;;;;;;;;9992717;28;20057;-77
2022/11/24 10:03:50;;;;;;;9.23;5.75;;;;;;;;;;9977018;28;20074;-77
2022/11/24 10:08:48;;;;;;;10.63;6.78;;;;;;;;;;9989057;28;20461;-77
2022/11/24 10:14:06;;;;;;;10.10;7.05;;;;;;;;;;9980942;28;20077;-78
2022/11/24 10:19:20;;;;;;;9.35;7.18;;;;;;;;;;9979955;28;20558;-77
2022/11/24 10:24:23;;;;;;;12.93;7.78;;;;;;;;;;9992816;28;20559;-77
2022/11/24 10:29:45;;;;;;;9.52;7.75;;;;;;;;;;9975404;28;20089;-77
2022/11/24 10:34:43;;;;;;;10.15;8.27;;;;;;;;;;9987533;28;20058;-77
2022/11/24 10:39:58;;;;;;;9.77;8.07;;;;;;;;;;9992981;28;20057;-77
2022/11/24 10:45:10;;;;;;;8.85;7.88;;;;;;;;;;9991207;28;20793;-77
2022/11/24 10:50:15;;;;;;;10.10;7.85;;;;;;;;;;9978369;28;20058;-76
2022/11/24 10:55:09;;;;;;;10.98;8.65;;;;;;;;;;9991926;28;20821;-77
2022/11/24 11:00:22;;;;;;;9.50;8.25;;;;;;;;;;9991380;28;20507;-76
2022/11/24 11:05:30;;;;;;;9.98;7.97;;;;;;;;;;9976511;28;20100;-77
2022/11/24 11:10:23;;;;;;;10.23;7.95;;;;;;;;;;9988353;28;20557;-76
2022/11/24 11:15:27;;;;;;;9.35;7.32;;;;;;;;;;9987013;28;20138;-76
2022/11/24 11:20:32;;;;;;;8.65;7.38;;;;;;;;;;9970715;28;20129;-77
2022/11/24 11:25:45;;;;;;;12.38;8.45;;;;;;;;;;9989720;28;20050;-76
2022/11/24 11:30:40;;;;;;;10.52;8.65;;;;;;;;;;9990259;28;20059;-76
2022/11/24 11:35:52;;;;;;;10.88;8.63;;;;;;;;;;9989700;28;20042;-77
2022/11/24 11:40:48;;;;;;;10.40;8.65;;;;;;;;;;9991039;28;20475;-77
2022/11/24 11:45:45;;;;;;;14.70;8.95;;;;;;;;;;9972771;28;20074;-76
2022/11/24 11:50:40;;;;;;;16.02;8.65;;;;;;;;;;9990232;28;20046;-72
2022/11/24 11:56:21;;;;;;;10.98;8.07;;;;;;;;;;9961852;28;20556;-72
2022/11/24 12:01:37;;;;;;;16.48;8.57;;;;;;;;;;9984938;28;20502;-72
2022/11/24 12:06:56;;;;;;;10.82;7.75;;;;;;;;;;9972074;28;20054;-73
2022/11/24 12:11:52;;;;;;;12.90;7.83;;;;;;;;;;9982947;28;20049;-73
2022/11/24 12:17:07;;;;;;;9.00;7.90;;;;;;;;;;9988458;28;20297;-73
2022/11/24 12:22:03;;;;;;;10.55;8.68;;;;;;;;;;9989147;28;20064;-71
2022/11/24 12:27:00;;;;;;;17.58;9.23;;;;;;;;;;9987874;28;20046;-73
2022/11/24 12:32:24;;;;;;;12.10;9.32;;;;;;;;;;9987937;28;20407;-72
2022/11/24 12:37:20;;;;;;;15.50;10.88;;;;;;;;;;9985569;28;20057;-73
2022/11/24 12:42:54;;;;;;;12.88;10.18;;;;;;;;;;9987841;28;21593;-73
2022/11/24 12:47:53;;;;;;;18.67;9.43;;;;;;;;;;9894713;28;20409;-73
2022/11/24 12:52:50;;;;;;;12.75;8.70;;;;;;;;;;9987153;28;20145;-73
2022/11/24 12:58:28;;;;;;;10.57;7.45;;;;;;;;;;9971276;28;20525;-74
2022/11/24 13:03:59;;;;;;;10.13;7.97;;;;;;;;;;9986570;28;20050;-73
2022/11/24 13:08:52;;;;;;;9.70;7.85;;;;;;;;;;9987456;28;20057;-73
2022/11/24 13:14:00;;;;;;;10.07;8.07;;;;;;;;;;9981381;28;20054;-73
2022/11/24 13:18:54;;;;;;;10.68;8.55;;;;;;;;;;9977444;28;20046;-71
2022/11/24 13:23:56;;;;;;;13.30;9.23;;;;;;;;;;9994988;28;20054;-72
2022/11/24 13:28:56;;;;;;;15.57;11.63;;;;;;;;;;9995442;28;20054;-73
2022/11/24 13:34:37;;;;;;;14.50;10.90;;;;;;;;;;9991076;28;20088;-73
2022/11/24 13:39:54;;;;;;;14.75;11.40;;;;;;;;;;9990116;28;20133;-72
2022/11/24 13:45:28;;;;;;;14.63;10.48;;;;;;;;;;9971894;28;20547;-73
2022/11/24 13:50:50;;;;;;;15.27;10.73;;;;;;;;;;9989101;28;20065;-73
2022/11/24 13:55:58;;;;;;;16.23;9.63;;;;;;;;;;9990200;28;20054;-72
2022/11/24 14:01:19;;;;;;;14.10;9.40;;;;;;;;;;9991084;28;20054;-73
2022/11/24 14:06:31;;;;;;;20.55;10.93;;;;;;;;;;9991686;28;20123;-73
2022/11/24 14:11:27;;;;;;;23.67;16.15;;;;;;;;;;9978397;28;20038;-72
2022/11/24 14:16:22;;;;;;;13.95;10.55;;;;;;;;;;10002908;28;20066;-72
2022/11/24 14:21:18;;;;;;;15.18;10.02;;;;;;;;;;9993611;28;20050;-72
2022/11/24 14:26:21;;;;;;;13.95;10.45;;;;;;;;;;9994881;28;20085;-72
2022/11/24 14:31:23;;;;;;;17.02;9.40;;;;;;;;;;9939568;28;1509055;-72
2022/11/24 14:36:17;;;;;;;15.35;8.88;;;;;;;;;;9991487;28;20046;-71
2022/11/24 14:41:24;;;;;;;14.00;9.68;;;;;;;;;;9996437;28;20469;-72
2022/11/24 14:46:18;;;;;;;14.88;9.98;;;;;;;;;;9990717;28;20054;-73
2022/11/24 14:51:17;;;;;;;15.27;10.30;;;;;;;;;;9990749;28;20046;-72
2022/11/24 14:56:24;;;;;;;15.60;11.05;;;;;;;;;;9971468;28;20078;-72
2022/11/24 15:01:28;;;;;;;12.65;9.80;;;;;;;;;;9991245;28;20050;-72
2022/11/24 15:06:23;;;;;;;12.23;9.13;;;;;;;;;;9990548;28;20490;-72
2022/11/24 15:11:17;;;;;;;17.08;8.18;;;;;;;;;;9992185;28;20604;-72
2022/11/24 15:16:15;;;;;;;13.27;9.25;;;;;;;;;;9990688;28;20195;-72
2022/11/24 15:21:10;;;;;;;16.52;9.90;;;;;;;;;;9970246;28;20050;-72
2022/11/24 15:26:10;;;;;;;13.85;9.43;;;;;;;;;;9971165;28;20046;-71
2022/11/24 15:31:11;;;;;;;22.52;11.93;;;;;;;;;;9989260;28;20082;-71
2022/11/24 15:36:06;;;;;;;18.08;10.73;;;;;;;;;;9989529;28;20047;-72
2022/11/24 15:41:00;;;;;;;23.52;13.88;;;;;;;;;;9989554;28;20047;-72
2022/11/24 15:45:53;;;;;;;18.55;13.30;;;;;;;;;;9971562;28;20053;-72
2022/11/24 15:50:47;;;;;;;27.88;16.08;;;;;;;;;;9989852;28;20162;-72
2022/11/24 15:55:41;;;;;;;19.52;14.38;;;;;;;;;;9989019;28;20054;-71
2022/11/24 16:00:36;;;;;;;23.13;17.30;;;;;;;;;;9989696;28;20138;-72
2022/11/24 16:05:30;;;;;;;17.67;12.27;;;;;;;;;;9989144;28;20050;-72
2022/11/24 16:10:23;;;;;;;18.38;12.80;;;;;;;;;;9970611;28;20173;-72
2022/11/24 16:15:17;;;;;;;21.90;14.07;;;;;;;;;;9988009;28;20058;-72
2022/11/24 16:20:11;;;;;;;29.15;16.55;;;;;;;;;;9988028;28;20054;-72
2022/11/24 16:25:06;;;;;;;29.63;17.30;;;;;;;;;;9988628;28;20089;-72
2022/11/24 16:30:00;;;;;;;23.58;15.45;;;;;;;;;;9987893;28;20066;-71
2022/11/24 16:34:55;;;;;;;39.40;19.15;;;;;;;;;;9985907;28;20142;-71
2022/11/24 16:39:49;;;;;;;41.72;27.38;;;;;;;;;;9987158;28;20484;-71
2022/11/24 16:44:43;;;;;;;41.58;22.70;;;;;;;;;;9986522;28;20137;-71
2022/11/24 16:49:38;;;;;;;23.42;14.32;;;;;;;;;;9987381;28;20486;-71
2022/11/24 16:54:33;;;;;;;28.00;15.00;;;;;;;;;;9987255;28;20046;-71
2022/11/24 16:59:31;;;;;;;34.03;21.55;;;;;;;;;;9987119;28;20085;-71
2022/11/24 17:04:24;;;;;;;61.40;31.98;;;;;;;;;;9987409;28;20081;-71
2022/11/24 17:09:18;;;;;;;36.90;25.80;;;;;;;;;;9985577;28;20060;-70
2022/11/24 17:14:12;;;;;;;35.15;25.27;;;;;;;;;;9986102;28;20050;-72
2022/11/24 17:19:06;;;;;;;36.28;20.20;;;;;;;;;;9984950;28;20181;-73
2022/11/24 17:24:01;;;;;;;34.70;18.33;;;;;;;;;;9986009;28;20104;-73
2022/11/24 17:28:55;;;;;;;24.75;18.27;;;;;;;;;;9976087;28;20046;-72
2022/11/24 17:33:49;;;;;;;30.08;20.38;;;;;;;;;;9985568;28;20129;-72
2022/11/24 17:38:43;;;;;;;39.25;23.00;;;;;;;;;;9989505;28;20060;-75
2022/11/24 17:43:36;;;;;;;30.42;20.90;;;;;;;;;;9984721;28;20084;-75
2022/11/24 17:48:30;;;;;;;42.60;26.25;;;;;;;;;;9985451;28;20066;-76
2022/11/24 17:53:24;;;;;;;49.40;29.70;;;;;;;;;;9983078;28;20156;-75
2022/11/24 17:58:17;;;;;;;76.07;50.92;;;;;;;;;;9985276;28;20057;-76
2022/11/24 18:03:11;;;;;;;65.10;42.97;;;;;;;;;;9991842;28;20062;-74
2022/11/24 18:08:06;;;;;;;58.50;38.22;;;;;;;;;;9992312;28;20065;-75
2022/11/24 18:13:00;;;;;;;55.72;38.53;;;;;;;;;;9991892;28;20402;-75
2022/11/24 18:17:54;;;;;;;57.08;39.65;;;;;;;;;;9991586;28;20457;-76
2022/11/24 18:22:47;;;;;;;45.78;33.03;;;;;;;;;;9990161;28;20042;-76
2022/11/24 18:27:57;;;;;;;44.95;29.08;;;;;;;;;;9991748;28;20042;-76
2022/11/24 18:32:52;;;;;;;36.78;27.83;;;;;;;;;;9991695;28;20137;-74
2022/11/24 18:37:45;;;;;;;39.05;30.02;;;;;;;;;;9990149;28;20132;-74
2022/11/24 18:42:39;;;;;;;44.95;34.78;;;;;;;;;;9990438;28;20477;-74
2022/11/24 18:47:32;;;;;;;40.70;30.95;;;;;;;;;;9990562;28;20057;-74
2022/11/24 18:52:26;;;;;;;41.25;32.40;;;;;;;;;;9990921;28;20406;-74
2022/11/24 18:57:21;;;;;;;40.70;30.80;;;;;;;;;;9990526;28;20070;-74
2022/11/24 19:02:16;;;;;;;41.05;30.02;;;;;;;;;;9989388;28;20413;-75
2022/11/24 19:07:08;;;;;;;49.50;31.65;;;;;;;;;;9990235;28;20385;-74
2022/11/24 19:12:03;;;;;;;30.52;20.00;;;;;;;;;;9988510;28;20052;-74
2022/11/24 19:17:00;;;;;;;64.57;46.42;;;;;;;;;;9990038;28;20461;-75
2022/11/24 19:21:55;;;;;;;30.60;21.52;;;;;;;;;;9990404;28;20482;-73
2022/11/24 19:26:50;;;;;;;31.50;23.42;;;;;;;;;;9990640;28;20049;-76
2022/11/24 19:31:44;;;;;;;28.52;22.55;;;;;;;;;;9986723;28;20069;-72
2022/11/24 19:36:39;;;;;;;26.83;20.52;;;;;;;;;;9985774;28;20058;-72
2022/11/24 19:41:33;;;;;;;15.48;13.68;;;;;;;;;;9986766;28;20046;-68
2022/11/24 19:46:28;;;;;;;24.50;17.20;;;;;;;;;;9987675;28;20073;-72
2022/11/24 19:51:26;;;;;;;18.33;16.27;;;;;;;;;;9988027;28;20121;-69
2022/11/24 19:56:22;;;;;;;20.30;16.63;;;;;;;;;;9983778;28;20537;-73
2022/11/24 20:01:19;;;;;;;28.27;18.85;;;;;;;;;;9989542;28;20045;-71
2022/11/24 20:06:13;;;;;;;19.85;16.77;;;;;;;;;;9989726;28;20117;-70
2022/11/24 20:11:13;;;;;;;21.35;18.73;;;;;;;;;;9989347;28;20101;-72
2022/11/24 20:16:08;;;;;;;;;;;;;;;;;;9984859;28;20042;-70
2022/11/24 20:21:06;;;;;;;25.88;21.00;;;;;;;;;;9986824;28;19927;-68
2022/11/24 20:26:10;;;;;;;28.30;19.50;;;;;;;;;;9986074;28;20081;-70
2022/11/24 20:31:12;;;;;;;22.10;18.65;;;;;;;;;;9966702;28;20525;-71
2022/11/24 20:36:12;;;;;;;40.25;27.10;;;;;;;;;;9987458;28;20052;-72
2022/11/24 20:41:05;;;;;;;;;;;;;;;;;;9968700;28;20489;-67
2022/11/24 20:46:02;;;;;;;22.50;15.45;;;;;;;;;;9986818;28;20385;-70
2022/11/24 20:51:01;;;;;;;39.45;13.15;;;;;;;;;;9986539;28;20050;-71
2022/11/24 20:56:07;;;;;;;18.33;13.70;;;;;;;;;;9986540;28;20489;-75
2022/11/24 21:01:09;;;;;;;28.27;18.85;;;;;;;;;;9982932;28;20054;-73
2022/11/24 21:06:03;;;;;;;15.57;13.15;;;;;;;;;;9982368;28;20092;-68
2022/11/24 21:10:59;;;;;;;13.80;12.27;;;;;;;;;;9984196;28;20070;-69
2022/11/24 21:15:53;;;;;;;14.35;11.35;;;;;;;;;;9981248;28;20101;-69
2022/11/24 21:20:47;;;;;;;15.55;12.90;;;;;;;;;;9985856;28;20476;-67
2022/11/24 21:25:41;;;;;;;13.57;12.00;;;;;;;;;;9984820;28;20054;-68
2022/11/24 21:30:36;;;;;;;17.63;12.10;;;;;;;;;;9986796;28;20062;-65
2022/11/24 21:35:34;;;;;;;32.47;11.60;;;;;;;;;;9985175;28;20061;-68
2022/11/24 21:40:28;;;;;;;14.45;10.43;;;;;;;;;;9988289;28;20101;-68
2022/11/24 21:45:23;;;;;;;17.13;13.00;;;;;;;;;;9992903;28;20412;-68
2022/11/24 21:50:17;;;;;;;17.67;15.73;;;;;;;;;;9993174;28;20121;-67
2022/11/24 21:55:12;;;;;;;21.30;14.80;;;;;;;;;;9993262;28;20057;-68
2022/11/24 22:00:07;;;;;;;16.75;14.38;;;;;;;;;;9993528;28;20506;-68
2022/11/24 22:05:02;;;;;;;19.95;16.05;;;;;;;;;;9988597;28;20050;-68
2022/11/24 22:09:56;;;;;;;25.20;19.95;;;;;;;;;;9990100;28;20053;-68
2022/11/24 22:14:50;;;;;;;21.33;17.40;;;;;;;;;;9990107;28;20050;-68
2022/11/24 22:19:44;;;;;;;22.65;18.20;;;;;;;;;;9990726;28;20504;-69
2022/11/24 22:24:38;;;;;;;21.63;17.05;;;;;;;;;;9989775;28;20080;-69
2022/11/24 22:29:33;;;;;;;27.40;19.98;;;;;;;;;;9989723;28;20134;-69
2022/11/24 22:34:28;;;;;;;31.38;22.83;;;;;;;;;;9990309;28;20054;-69
2022/11/24 22:39:23;;;;;;;26.23;20.40;;;;;;;;;;9992059;28;20411;-69
2022/11/24 22:44:16;;;;;;;27.52;20.70;;;;;;;;;;9974833;28;20137;-69
2022/11/24 22:49:10;;;;;;;21.60;17.95;;;;;;;;;;9992005;28;20452;-68
2022/11/24 22:54:05;;;;;;;18.45;14.88;;;;;;;;;;9992217;28;20062;-69
2022/11/24 22:58:59;;;;;;;22.77;16.33;;;;;;;;;;9992658;28;20581;-69
2022/11/24 23:03:54;;;;;;;19.98;15.38;;;;;;;;;;9991496;28;20050;-69
2022/11/24 23:08:49;;;;;;;20.88;15.10;;;;;;;;;;9992012;28;20046;-69
2022/11/24 23:13:43;;;;;;;21.83;15.25;;;;;;;;;;9991116;28;20814;-69
2022/11/24 23:18:37;;;;;;;16.40;14.68;;;;;;;;;;9991055;28;20084;-69
2022/11/24 23:23:31;;;;;;;18.17;12.30;;;;;;;;;;9990761;28;20050;-69
2022/11/24 23:28:25;;;;;;;19.88;16.00;;;;;;;;;;9991285;28;20138;-69
2022/11/24 23:33:19;;;;;;;24.65;17.42;;;;;;;;;;9991556;28;20124;-69
2022/11/24 23:38:14;;;;;;;16.90;14.27;;;;;;;;;;9990475;28;20050;-69
2022/11/24 23:43:08;;;;;;;19.98;15.50;;;;;;;;;;9990583;28;20513;-69
2022/11/24 23:48:02;;;;;;;19.20;16.50;;;;;;;;;;9990033;28;20497;-69
2022/11/24 23:52:55;;;;;;;22.38;15.32;;;;;;;;;;9989974;28;20058;-69
2022/11/24 23:57:50;;;;;;;20.42;15.35;;;;;;;;;;9989600;28;20444;-69
